sensor_id;sensor_type;location;lat;lon;timestamp;pressure;altitude;pressure_sealevel;temperature
69590;BMP180;56792;50.644;17.984;2022-10-16T00:00:47;99743.60;;;13.10
69590;BMP180;56792;50.644;17.984;2022-10-16T00:03:19;99743.00;;;13.10
69590;BMP180;56792;50.644;17.984;2022-10-16T00:05:51;99746.00;;;13.12
69590;BMP180;56792;50.644;17.984;2022-10-16T00:08:24;99745.60;;;13.10
69590;BMP180;56792;50.644;17.984;2022-10-16T00:11:00;99747.40;;;13.10
69590;BMP180;56792;50.644;17.984;2022-10-16T00:13:33;99753.80;;;13.10
69590;BMP180;56792;50.644;17.984;2022-10-16T00:16:07;99755.00;;;13.10
69590;BMP180;56792;50.644;17.984;2022-10-16T00:18:40;99751.00;;;13.10
69590;BMP180;56792;50.644;17.984;2022-10-16T00:21:15;99747.60;;;13.10
69590;BMP180;56792;50.644;17.984;2022-10-16T00:23:49;99749.00;;;13.10
69590;BMP180;56792;50.644;17.984;2022-10-16T00:26:22;99751.00;;;13.10
69590;BMP180;56792;50.644;17.984;2022-10-16T00:28:55;99750.20;;;13.10
69590;BMP180;56792;50.644;17.984;2022-10-16T00:31:27;99749.60;;;13.08
69590;BMP180;56792;50.644;17.984;2022-10-16T00:34:00;99748.80;;;13.04
69590;BMP180;56792;50.644;17.984;2022-10-16T00:36:32;99746.60;;;13.06
69590;BMP180;56792;50.644;17.984;2022-10-16T00:39:04;99746.60;;;13.06
69590;BMP180;56792;50.644;17.984;2022-10-16T00:41:36;99741.20;;;13.00
69590;BMP180;56792;50.644;17.984;2022-10-16T00:44:43;99741.20;;;13.00
69590;BMP180;56792;50.644;17.984;2022-10-16T00:47:23;99744.20;;;13.00
69590;BMP180;56792;50.644;17.984;2022-10-16T00:50:02;99751.00;;;13.00
69590;BMP180;56792;50.644;17.984;2022-10-16T00:52:37;99754.40;;;13.00
69590;BMP180;56792;50.644;17.984;2022-10-16T00:55:12;99753.20;;;13.00
69590;BMP180;56792;50.644;17.984;2022-10-16T00:57:45;99752.20;;;13.00
69590;BMP180;56792;50.644;17.984;2022-10-16T01:00:23;99758.00;;;13.04
69590;BMP180;56792;50.644;17.984;2022-10-16T01:03:00;99756.20;;;13.10
69590;BMP180;56792;50.644;17.984;2022-10-16T01:05:44;99758.60;;;13.10
69590;BMP180;56792;50.644;17.984;2022-10-16T01:08:29;99762.40;;;13.10
69590;BMP180;56792;50.644;17.984;2022-10-16T01:11:15;99765.20;;;13.10
69590;BMP180;56792;50.644;17.984;2022-10-16T01:13:55;99760.20;;;13.14
69590;BMP180;56792;50.644;17.984;2022-10-16T01:16:37;99762.20;;;13.20
69590;BMP180;56792;50.644;17.984;2022-10-16T01:19:20;99766.40;;;13.20
69590;BMP180;56792;50.644;17.984;2022-10-16T01:21:59;99769.20;;;13.20
69590;BMP180;56792;50.644;17.984;2022-10-16T01:24:40;99774.20;;;13.24
69590;BMP180;56792;50.644;17.984;2022-10-16T01:27:16;99777.00;;;13.30
69590;BMP180;56792;50.644;17.984;2022-10-16T01:29:56;99771.40;;;13.30
69590;BMP180;56792;50.644;17.984;2022-10-16T01:32:38;99769.40;;;13.30
69590;BMP180;56792;50.644;17.984;2022-10-16T01:35:20;99764.20;;;13.30
69590;BMP180;56792;50.644;17.984;2022-10-16T01:38:01;99765.80;;;13.30
69590;BMP180;56792;50.644;17.984;2022-10-16T01:40:38;99765.60;;;13.30
69590;BMP180;56792;50.644;17.984;2022-10-16T01:43:14;99768.20;;;13.32
69590;BMP180;56792;50.644;17.984;2022-10-16T01:45:48;99766.20;;;13.40
69590;BMP180;56792;50.644;17.984;2022-10-16T01:48:22;99768.40;;;13.40
69590;BMP180;56792;50.644;17.984;2022-10-16T01:51:03;99772.00;;;13.40
69590;BMP180;56792;50.644;17.984;2022-10-16T01:53:37;99775.20;;;13.40
69590;BMP180;56792;50.644;17.984;2022-10-16T01:56:13;99769.60;;;13.40
69590;BMP180;56792;50.644;17.984;2022-10-16T01:58:51;99773.40;;;13.40
69590;BMP180;56792;50.644;17.984;2022-10-16T02:01:28;99770.00;;;13.40
69590;BMP180;56792;50.644;17.984;2022-10-16T02:04:09;99773.80;;;13.40
69590;BMP180;56792;50.644;17.984;2022-10-16T02:06:42;99776.20;;;13.40
69590;BMP180;56792;50.644;17.984;2022-10-16T02:09:14;99768.60;;;13.40
69590;BMP180;56792;50.644;17.984;2022-10-16T02:11:47;99772.20;;;13.40
69590;BMP180;56792;50.644;17.984;2022-10-16T02:14:21;99776.80;;;13.40
69590;BMP180;56792;50.644;17.984;2022-10-16T02:16:55;99777.60;;;13.40
69590;BMP180;56792;50.644;17.984;2022-10-16T02:19:27;99781.40;;;13.40
69590;BMP180;56792;50.644;17.984;2022-10-16T02:22:04;99776.80;;;13.40
69590;BMP180;56792;50.644;17.984;2022-10-16T02:24:46;99779.40;;;13.40
69590;BMP180;56792;50.644;17.984;2022-10-16T02:27:27;99777.40;;;13.30
69590;BMP180;56792;50.644;17.984;2022-10-16T02:30:07;99776.40;;;13.30
69590;BMP180;56792;50.644;17.984;2022-10-16T02:32:44;99776.40;;;13.30
69590;BMP180;56792;50.644;17.984;2022-10-16T02:35:20;99776.20;;;13.30
69590;BMP180;56792;50.644;17.984;2022-10-16T02:37:54;99784.40;;;13.30
69590;BMP180;56792;50.644;17.984;2022-10-16T02:40:28;99782.60;;;13.30
69590;BMP180;56792;50.644;17.984;2022-10-16T02:43:00;99780.80;;;13.30
69590;BMP180;56792;50.644;17.984;2022-10-16T02:45:35;99783.60;;;13.30
69590;BMP180;56792;50.644;17.984;2022-10-16T02:48:07;99785.20;;;13.34
69590;BMP180;56792;50.644;17.984;2022-10-16T02:50:39;99785.40;;;13.40
69590;BMP180;56792;50.644;17.984;2022-10-16T02:53:11;99780.80;;;13.40
69590;BMP180;56792;50.644;17.984;2022-10-16T02:55:43;99787.00;;;13.40
69590;BMP180;56792;50.644;17.984;2022-10-16T02:58:15;99788.00;;;13.50
69590;BMP180;56792;50.644;17.984;2022-10-16T03:00:47;99787.80;;;13.50
69590;BMP180;56792;50.644;17.984;2022-10-16T03:03:19;99792.60;;;13.50
69590;BMP180;56792;50.644;17.984;2022-10-16T03:05:51;99789.40;;;13.58
69590;BMP180;56792;50.644;17.984;2022-10-16T03:08:23;99788.60;;;13.60
69590;BMP180;56792;50.644;17.984;2022-10-16T03:10:55;99789.40;;;13.60
69590;BMP180;56792;50.644;17.984;2022-10-16T03:13:27;99793.60;;;13.60
69590;BMP180;56792;50.644;17.984;2022-10-16T03:15:59;99790.80;;;13.70
69590;BMP180;56792;50.644;17.984;2022-10-16T03:18:31;99792.20;;;13.70
69590;BMP180;56792;50.644;17.984;2022-10-16T03:21:03;99796.80;;;13.70
69590;BMP180;56792;50.644;17.984;2022-10-16T03:23:35;99790.40;;;13.72
69590;BMP180;56792;50.644;17.984;2022-10-16T03:26:07;99793.60;;;13.80
69590;BMP180;56792;50.644;17.984;2022-10-16T03:28:38;99803.60;;;13.80
69590;BMP180;56792;50.644;17.984;2022-10-16T03:31:10;99807.20;;;13.80
69590;BMP180;56792;50.644;17.984;2022-10-16T03:33:42;99810.00;;;13.80
69590;BMP180;56792;50.644;17.984;2022-10-16T03:36:14;99809.20;;;13.72
69590;BMP180;56792;50.644;17.984;2022-10-16T03:38:46;99807.40;;;13.70
69590;BMP180;56792;50.644;17.984;2022-10-16T03:41:18;99809.40;;;13.70
69590;BMP180;56792;50.644;17.984;2022-10-16T03:43:50;99810.80;;;13.70
69590;BMP180;56792;50.644;17.984;2022-10-16T03:46:22;99807.60;;;13.70
69590;BMP180;56792;50.644;17.984;2022-10-16T03:48:54;99806.00;;;13.62
69590;BMP180;56792;50.644;17.984;2022-10-16T03:51:26;99802.20;;;13.60
69590;BMP180;56792;50.644;17.984;2022-10-16T03:53:58;99802.00;;;13.60
69590;BMP180;56792;50.644;17.984;2022-10-16T03:56:29;99805.00;;;13.52
69590;BMP180;56792;50.644;17.984;2022-10-16T03:59:01;99806.60;;;13.50
69590;BMP180;56792;50.644;17.984;2022-10-16T04:01:33;99810.80;;;13.50
69590;BMP180;56792;50.644;17.984;2022-10-16T04:04:05;99814.40;;;13.50
69590;BMP180;56792;50.644;17.984;2022-10-16T04:06:37;99819.00;;;13.50
69590;BMP180;56792;50.644;17.984;2022-10-16T04:09:10;99821.40;;;13.46
69590;BMP180;56792;50.644;17.984;2022-10-16T04:11:41;99812.00;;;13.40
69590;BMP180;56792;50.644;17.984;2022-10-16T04:14:15;99810.40;;;13.40
69590;BMP180;56792;50.644;17.984;2022-10-16T04:16:47;99810.60;;;13.40
69590;BMP180;56792;50.644;17.984;2022-10-16T04:19:19;99806.40;;;13.40
69590;BMP180;56792;50.644;17.984;2022-10-16T04:21:51;99811.40;;;13.40
69590;BMP180;56792;50.644;17.984;2022-10-16T04:24:23;99818.00;;;13.40
69590;BMP180;56792;50.644;17.984;2022-10-16T04:26:55;99827.80;;;13.40
69590;BMP180;56792;50.644;17.984;2022-10-16T04:29:27;99830.80;;;13.40
69590;BMP180;56792;50.644;17.984;2022-10-16T04:31:59;99831.40;;;13.40
69590;BMP180;56792;50.644;17.984;2022-10-16T04:34:31;99826.60;;;13.40
69590;BMP180;56792;50.644;17.984;2022-10-16T04:37:03;99825.60;;;13.34
69590;BMP180;56792;50.644;17.984;2022-10-16T04:39:35;99828.40;;;13.32
69590;BMP180;56792;50.644;17.984;2022-10-16T04:42:07;99833.40;;;13.40
69590;BMP180;56792;50.644;17.984;2022-10-16T04:44:39;99831.60;;;13.32
69590;BMP180;56792;50.644;17.984;2022-10-16T04:47:11;99827.80;;;13.32
69590;BMP180;56792;50.644;17.984;2022-10-16T04:49:43;99831.40;;;13.30
69590;BMP180;56792;50.644;17.984;2022-10-16T04:52:15;99827.40;;;13.30
69590;BMP180;56792;50.644;17.984;2022-10-16T04:54:47;99828.60;;;13.30
69590;BMP180;56792;50.644;17.984;2022-10-16T04:57:21;99830.80;;;13.30
69590;BMP180;56792;50.644;17.984;2022-10-16T04:59:53;99830.00;;;13.30
69590;BMP180;56792;50.644;17.984;2022-10-16T05:02:25;99825.00;;;13.30
69590;BMP180;56792;50.644;17.984;2022-10-16T05:04:57;99825.80;;;13.32
69590;BMP180;56792;50.644;17.984;2022-10-16T05:07:28;99832.00;;;13.40
69590;BMP180;56792;50.644;17.984;2022-10-16T05:10:01;99832.40;;;13.34
69590;BMP180;56792;50.644;17.984;2022-10-16T05:12:34;99845.40;;;13.34
69590;BMP180;56792;50.644;17.984;2022-10-16T05:15:09;99854.80;;;13.40
69590;BMP180;56792;50.644;17.984;2022-10-16T05:17:41;99861.80;;;13.40
69590;BMP180;56792;50.644;17.984;2022-10-16T05:20:13;99859.80;;;13.40
69590;BMP180;56792;50.644;17.984;2022-10-16T05:22:45;99862.60;;;13.48
69590;BMP180;56792;50.644;17.984;2022-10-16T05:25:17;99861.60;;;13.50
69590;BMP180;56792;50.644;17.984;2022-10-16T05:27:52;99864.00;;;13.50
69590;BMP180;56792;50.644;17.984;2022-10-16T05:30:24;99863.80;;;13.50
69590;BMP180;56792;50.644;17.984;2022-10-16T05:32:56;99856.80;;;13.50
69590;BMP180;56792;50.644;17.984;2022-10-16T05:35:28;99854.80;;;13.50
69590;BMP180;56792;50.644;17.984;2022-10-16T05:38:00;99863.20;;;13.50
69590;BMP180;56792;50.644;17.984;2022-10-16T05:40:31;99867.20;;;13.50
69590;BMP180;56792;50.644;17.984;2022-10-16T05:43:04;99871.60;;;13.50
69590;BMP180;56792;50.644;17.984;2022-10-16T05:45:36;99874.00;;;13.60
69590;BMP180;56792;50.644;17.984;2022-10-16T05:48:08;99875.80;;;13.60
69590;BMP180;56792;50.644;17.984;2022-10-16T05:50:40;99882.20;;;13.60
69590;BMP180;56792;50.644;17.984;2022-10-16T05:53:12;99887.40;;;13.60
69590;BMP180;56792;50.644;17.984;2022-10-16T05:55:44;99888.80;;;13.64
69590;BMP180;56792;50.644;17.984;2022-10-16T05:58:23;99889.80;;;13.70
69590;BMP180;56792;50.644;17.984;2022-10-16T06:01:01;99892.40;;;13.70
69590;BMP180;56792;50.644;17.984;2022-10-16T06:03:35;99890.20;;;13.70
69590;BMP180;56792;50.644;17.984;2022-10-16T06:06:13;99891.60;;;13.70
69590;BMP180;56792;50.644;17.984;2022-10-16T06:08:47;99894.60;;;13.72
69590;BMP180;56792;50.644;17.984;2022-10-16T06:11:23;99896.40;;;13.80
69590;BMP180;56792;50.644;17.984;2022-10-16T06:13:57;99899.60;;;13.80
69590;BMP180;56792;50.644;17.984;2022-10-16T06:16:30;99904.00;;;13.82
69590;BMP180;56792;50.644;17.984;2022-10-16T06:19:02;99906.00;;;13.90
69590;BMP180;56792;50.644;17.984;2022-10-16T06:21:36;99907.60;;;13.90
69590;BMP180;56792;50.644;17.984;2022-10-16T06:24:09;99907.80;;;13.90
69590;BMP180;56792;50.644;17.984;2022-10-16T06:26:41;99905.00;;;13.90
69590;BMP180;56792;50.644;17.984;2022-10-16T06:29:13;99906.40;;;14.00
69590;BMP180;56792;50.644;17.984;2022-10-16T06:31:45;99909.60;;;14.00
69590;BMP180;56792;50.644;17.984;2022-10-16T06:34:17;99909.00;;;14.00
69590;BMP180;56792;50.644;17.984;2022-10-16T06:36:49;99908.00;;;14.10
69590;BMP180;56792;50.644;17.984;2022-10-16T06:39:22;99907.40;;;14.10
69590;BMP180;56792;50.644;17.984;2022-10-16T06:41:53;99913.20;;;14.10
69590;BMP180;56792;50.644;17.984;2022-10-16T06:44:29;99916.80;;;14.10
69590;BMP180;56792;50.644;17.984;2022-10-16T06:47:01;99921.80;;;14.20
69590;BMP180;56792;50.644;17.984;2022-10-16T06:49:34;99921.40;;;14.20
69590;BMP180;56792;50.644;17.984;2022-10-16T06:52:06;99926.80;;;14.20
69590;BMP180;56792;50.644;17.984;2022-10-16T06:54:38;99936.80;;;14.20
69590;BMP180;56792;50.644;17.984;2022-10-16T06:57:11;99939.40;;;14.20
69590;BMP180;56792;50.644;17.984;2022-10-16T06:59:43;99939.80;;;14.26
69590;BMP180;56792;50.644;17.984;2022-10-16T07:02:15;99944.20;;;14.30
69590;BMP180;56792;50.644;17.984;2022-10-16T07:04:48;99948.60;;;14.30
69590;BMP180;56792;50.644;17.984;2022-10-16T07:07:21;99948.80;;;14.40
69590;BMP180;56792;50.644;17.984;2022-10-16T07:09:55;99948.80;;;14.44
69590;BMP180;56792;50.644;17.984;2022-10-16T07:12:28;99958.60;;;14.50
69590;BMP180;56792;50.644;17.984;2022-10-16T07:15:01;99953.20;;;14.50
69590;BMP180;56792;50.644;17.984;2022-10-16T07:17:33;99952.40;;;14.56
69590;BMP180;56792;50.644;17.984;2022-10-16T07:20:08;99948.60;;;14.60
69590;BMP180;56792;50.644;17.984;2022-10-16T07:22:41;99948.40;;;14.62
69590;BMP180;56792;50.644;17.984;2022-10-16T07:25:14;99947.60;;;14.70
69590;BMP180;56792;50.644;17.984;2022-10-16T07:27:46;99952.20;;;14.70
69590;BMP180;56792;50.644;17.984;2022-10-16T07:30:19;99955.60;;;14.80
69590;BMP180;56792;50.644;17.984;2022-10-16T07:32:51;99961.60;;;14.80
69590;BMP180;56792;50.644;17.984;2022-10-16T07:35:23;99967.20;;;14.90
69590;BMP180;56792;50.644;17.984;2022-10-16T07:37:56;99968.20;;;14.90
69590;BMP180;56792;50.644;17.984;2022-10-16T07:40:28;99969.40;;;14.90
69590;BMP180;56792;50.644;17.984;2022-10-16T07:43:01;99967.80;;;15.00
69590;BMP180;56792;50.644;17.984;2022-10-16T07:45:35;99971.60;;;15.00
69590;BMP180;56792;50.644;17.984;2022-10-16T07:48:08;99969.80;;;15.10
69590;BMP180;56792;50.644;17.984;2022-10-16T07:50:40;99976.40;;;15.10
69590;BMP180;56792;50.644;17.984;2022-10-16T07:53:14;99981.60;;;15.20
69590;BMP180;56792;50.644;17.984;2022-10-16T07:55:46;99979.80;;;15.30
69590;BMP180;56792;50.644;17.984;2022-10-16T07:58:18;99979.20;;;15.40
69590;BMP180;56792;50.644;17.984;2022-10-16T08:00:50;99981.20;;;15.50
69590;BMP180;56792;50.644;17.984;2022-10-16T08:03:21;99986.40;;;15.60
69590;BMP180;56792;50.644;17.984;2022-10-16T08:05:54;99986.20;;;15.70
69590;BMP180;56792;50.644;17.984;2022-10-16T08:08:29;99989.00;;;15.70
69590;BMP180;56792;50.644;17.984;2022-10-16T08:11:02;99989.20;;;15.80
69590;BMP180;56792;50.644;17.984;2022-10-16T08:13:35;99994.60;;;15.80
69590;BMP180;56792;50.644;17.984;2022-10-16T08:16:08;99996.80;;;15.90
69590;BMP180;56792;50.644;17.984;2022-10-16T08:18:42;99994.80;;;16.00
69590;BMP180;56792;50.644;17.984;2022-10-16T08:21:17;100000.60;;;16.14
69590;BMP180;56792;50.644;17.984;2022-10-16T08:23:49;100001.00;;;16.20
69590;BMP180;56792;50.644;17.984;2022-10-16T08:26:22;100004.00;;;16.30
69590;BMP180;56792;50.644;17.984;2022-10-16T08:28:54;100003.80;;;16.40
69590;BMP180;56792;50.644;17.984;2022-10-16T08:31:26;100002.60;;;16.50
69590;BMP180;56792;50.644;17.984;2022-10-16T08:33:59;100003.80;;;16.60
69590;BMP180;56792;50.644;17.984;2022-10-16T08:36:31;100000.80;;;16.70
69590;BMP180;56792;50.644;17.984;2022-10-16T08:39:04;100007.40;;;16.90
69590;BMP180;56792;50.644;17.984;2022-10-16T08:45:21;100004.40;;;17.30
69590;BMP180;56792;50.644;17.984;2022-10-16T08:48:11;100009.00;;;17.50
69590;BMP180;56792;50.644;17.984;2022-10-16T08:50:45;100016.00;;;17.56
69590;BMP180;56792;50.644;17.984;2022-10-16T08:53:24;100015.60;;;17.70
69590;BMP180;56792;50.644;17.984;2022-10-16T08:55:58;100023.00;;;17.80
69590;BMP180;56792;50.644;17.984;2022-10-16T08:58:32;100023.80;;;17.86
69590;BMP180;56792;50.644;17.984;2022-10-16T09:01:10;100023.00;;;17.90
69590;BMP180;56792;50.644;17.984;2022-10-16T09:04:01;100025.80;;;17.94
69590;BMP180;56792;50.644;17.984;2022-10-16T09:06:52;100028.20;;;18.00
69590;BMP180;56792;50.644;17.984;2022-10-16T09:09:43;100030.80;;;18.10
69590;BMP180;56792;50.644;17.984;2022-10-16T09:12:25;100023.60;;;18.02
69590;BMP180;56792;50.644;17.984;2022-10-16T09:15:16;100016.60;;;18.00
69590;BMP180;56792;50.644;17.984;2022-10-16T09:17:59;100022.80;;;18.06
69590;BMP180;56792;50.644;17.984;2022-10-16T09:20:53;100022.00;;;18.08
69590;BMP180;56792;50.644;17.984;2022-10-16T09:23:33;100023.80;;;18.10
69590;BMP180;56792;50.644;17.984;2022-10-16T09:26:11;100025.60;;;18.10
69590;BMP180;56792;50.644;17.984;2022-10-16T09:28:45;100026.60;;;18.20
69590;BMP180;56792;50.644;17.984;2022-10-16T09:31:20;100030.60;;;18.20
69590;BMP180;56792;50.644;17.984;2022-10-16T09:33:57;100025.00;;;18.20
69590;BMP180;56792;50.644;17.984;2022-10-16T09:36:35;100033.00;;;18.28
69590;BMP180;56792;50.644;17.984;2022-10-16T09:39:12;100036.60;;;18.30
69590;BMP180;56792;50.644;17.984;2022-10-16T09:41:46;100037.00;;;18.30
69590;BMP180;56792;50.644;17.984;2022-10-16T09:44:26;100044.80;;;18.30
69590;BMP180;56792;50.644;17.984;2022-10-16T09:47:16;100041.20;;;18.30
69590;BMP180;56792;50.644;17.984;2022-10-16T09:49:59;100046.60;;;18.32
69590;BMP180;56792;50.644;17.984;2022-10-16T09:52:34;100042.20;;;18.40
69590;BMP180;56792;50.644;17.984;2022-10-16T09:55:19;100042.60;;;18.40
69590;BMP180;56792;50.644;17.984;2022-10-16T09:57:56;100040.80;;;18.46
69590;BMP180;56792;50.644;17.984;2022-10-16T10:00:28;100045.00;;;18.50
69590;BMP180;56792;50.644;17.984;2022-10-16T10:03:00;100048.40;;;18.50
69590;BMP180;56792;50.644;17.984;2022-10-16T10:05:32;100051.80;;;18.60
69590;BMP180;56792;50.644;17.984;2022-10-16T10:08:06;100055.20;;;18.66
69590;BMP180;56792;50.644;17.984;2022-10-16T10:10:44;100057.00;;;18.62
69590;BMP180;56792;50.644;17.984;2022-10-16T10:13:25;100061.00;;;18.70
69590;BMP180;56792;50.644;17.984;2022-10-16T10:16:11;100058.40;;;18.90
69590;BMP180;56792;50.644;17.984;2022-10-16T10:18:45;100064.20;;;19.10
69590;BMP180;56792;50.644;17.984;2022-10-16T10:21:18;100064.60;;;19.40
69590;BMP180;56792;50.644;17.984;2022-10-16T10:23:58;100061.80;;;19.70
69590;BMP180;56792;50.644;17.984;2022-10-16T10:26:34;100063.00;;;19.90
69590;BMP180;56792;50.644;17.984;2022-10-16T10:29:13;100056.60;;;20.30
69590;BMP180;56792;50.644;17.984;2022-10-16T10:31:58;100053.20;;;21.00
69590;BMP180;56792;50.644;17.984;2022-10-16T10:35:03;100059.80;;;21.10
69590;BMP180;56792;50.644;17.984;2022-10-16T10:37:55;100060.00;;;20.90
69590;BMP180;56792;50.644;17.984;2022-10-16T10:40:49;100057.80;;;20.80
69590;BMP180;56792;50.644;17.984;2022-10-16T10:43:44;100054.00;;;20.60
69590;BMP180;56792;50.644;17.984;2022-10-16T10:46:31;100050.80;;;20.50
69590;BMP180;56792;50.644;17.984;2022-10-16T10:49:34;100051.60;;;20.50
69590;BMP180;56792;50.644;17.984;2022-10-16T10:52:31;100061.20;;;20.46
69590;BMP180;56792;50.644;17.984;2022-10-16T10:55:20;100058.60;;;20.20
69590;BMP180;56792;50.644;17.984;2022-10-16T10:58:17;100061.20;;;20.20
69590;BMP180;56792;50.644;17.984;2022-10-16T11:01:01;100063.80;;;20.20
69590;BMP180;56792;50.644;17.984;2022-10-16T11:04:04;100064.00;;;20.28
69590;BMP180;56792;50.644;17.984;2022-10-16T11:06:45;100064.00;;;20.30
69590;BMP180;56792;50.644;17.984;2022-10-16T11:09:24;100066.40;;;20.50
69590;BMP180;56792;50.644;17.984;2022-10-16T11:12:04;100078.00;;;20.90
69590;BMP180;56792;50.644;17.984;2022-10-16T11:14:45;100076.40;;;21.06
69590;BMP180;56792;50.644;17.984;2022-10-16T11:17:25;100081.60;;;21.40
69590;BMP180;56792;50.644;17.984;2022-10-16T11:20:03;100080.20;;;21.48
69590;BMP180;56792;50.644;17.984;2022-10-16T11:22:41;100085.40;;;21.30
69590;BMP180;56792;50.644;17.984;2022-10-16T11:25:22;100086.00;;;21.16
69590;BMP180;56792;50.644;17.984;2022-10-16T11:28:01;100087.00;;;20.90
69590;BMP180;56792;50.644;17.984;2022-10-16T11:30:43;100089.20;;;20.72
69590;BMP180;56792;50.644;17.984;2022-10-16T11:33:30;100093.80;;;20.70
69590;BMP180;56792;50.644;17.984;2022-10-16T11:36:14;100094.20;;;20.50
69590;BMP180;56792;50.644;17.984;2022-10-16T11:38:55;100091.80;;;20.40
69590;BMP180;56792;50.644;17.984;2022-10-16T11:41:35;100086.00;;;20.20
69590;BMP180;56792;50.644;17.984;2022-10-16T11:44:25;100083.60;;;20.30
69590;BMP180;56792;50.644;17.984;2022-10-16T11:47:15;100080.40;;;20.40
69590;BMP180;56792;50.644;17.984;2022-10-16T11:49:56;100073.80;;;20.52
69590;BMP180;56792;50.644;17.984;2022-10-16T11:52:39;100074.60;;;20.70
69590;BMP180;56792;50.644;17.984;2022-10-16T11:55:21;100064.60;;;20.98
69590;BMP180;56792;50.644;17.984;2022-10-16T11:58:00;100066.40;;;21.30
69590;BMP180;56792;50.644;17.984;2022-10-16T12:00:43;100070.20;;;21.50
69590;BMP180;56792;50.644;17.984;2022-10-16T12:03:29;100075.40;;;21.60
69590;BMP180;56792;50.644;17.984;2022-10-16T12:06:33;100071.80;;;21.92
69590;BMP180;56792;50.644;17.984;2022-10-16T12:09:14;100074.00;;;23.32
69590;BMP180;56792;50.644;17.984;2022-10-16T12:11:48;100073.20;;;24.00
69590;BMP180;56792;50.644;17.984;2022-10-16T12:14:39;100063.40;;;23.60
69590;BMP180;56792;50.644;17.984;2022-10-16T12:17:36;100061.80;;;23.20
69590;BMP180;56792;50.644;17.984;2022-10-16T12:20:27;100074.20;;;22.60
69590;BMP180;56792;50.644;17.984;2022-10-16T12:23:03;100076.80;;;22.20
69590;BMP180;56792;50.644;17.984;2022-10-16T12:25:39;100080.60;;;21.90
69590;BMP180;56792;50.644;17.984;2022-10-16T12:28:28;100086.00;;;21.70
69590;BMP180;56792;50.644;17.984;2022-10-16T12:31:03;100090.20;;;21.98
69590;BMP180;56792;50.644;17.984;2022-10-16T12:33:39;100095.80;;;22.30
69590;BMP180;56792;50.644;17.984;2022-10-16T12:36:26;100095.20;;;22.40
69590;BMP180;56792;50.644;17.984;2022-10-16T12:39:00;100098.60;;;22.18
69590;BMP180;56792;50.644;17.984;2022-10-16T12:41:34;100094.60;;;21.90
69590;BMP180;56792;50.644;17.984;2022-10-16T12:44:25;100086.40;;;21.76
69590;BMP180;56792;50.644;17.984;2022-10-16T12:46:58;100083.40;;;21.70
69590;BMP180;56792;50.644;17.984;2022-10-16T12:49:38;100074.80;;;21.70
69590;BMP180;56792;50.644;17.984;2022-10-16T12:52:38;100068.60;;;21.70
69590;BMP180;56792;50.644;17.984;2022-10-16T12:55:20;100073.60;;;21.70
69590;BMP180;56792;50.644;17.984;2022-10-16T12:58:12;100081.20;;;21.50
69590;BMP180;56792;50.644;17.984;2022-10-16T13:00:56;100086.60;;;21.40
69590;BMP180;56792;50.644;17.984;2022-10-16T13:03:53;100086.40;;;21.30
69590;BMP180;56792;50.644;17.984;2022-10-16T13:06:39;100091.00;;;21.20
69590;BMP180;56792;50.644;17.984;2022-10-16T13:09:42;100096.80;;;21.10
69590;BMP180;56792;50.644;17.984;2022-10-16T13:12:36;100102.80;;;21.10
69590;BMP180;56792;50.644;17.984;2022-10-16T13:15:33;100109.40;;;21.70
69590;BMP180;56792;50.644;17.984;2022-10-16T13:18:16;100111.60;;;21.84
69590;BMP180;56792;50.644;17.984;2022-10-16T13:21:20;100122.40;;;22.80
69590;BMP180;56792;50.644;17.984;2022-10-16T13:24:07;100126.00;;;22.36
69590;BMP180;56792;50.644;17.984;2022-10-16T13:26:52;100117.20;;;23.02
69590;BMP180;56792;50.644;17.984;2022-10-16T13:29:34;100117.00;;;22.96
69590;BMP180;56792;50.644;17.984;2022-10-16T13:32:12;100123.00;;;24.84
69590;BMP180;56792;50.644;17.984;2022-10-16T13:34:49;100124.80;;;26.24
69590;BMP180;56792;50.644;17.984;2022-10-16T13:37:24;100140.00;;;25.60
69590;BMP180;56792;50.644;17.984;2022-10-16T13:40:20;100139.80;;;24.54
69590;BMP180;56792;50.644;17.984;2022-10-16T13:42:54;100142.20;;;23.50
69590;BMP180;56792;50.644;17.984;2022-10-16T13:45:30;100143.40;;;22.84
69590;BMP180;56792;50.644;17.984;2022-10-16T13:48:11;100141.40;;;22.20
69590;BMP180;56792;50.644;17.984;2022-10-16T13:50:44;100133.20;;;21.90
69590;BMP180;56792;50.644;17.984;2022-10-16T13:53:17;100140.20;;;22.40
69590;BMP180;56792;50.644;17.984;2022-10-16T13:55:49;100135.80;;;22.30
69590;BMP180;56792;50.644;17.984;2022-10-16T13:58:22;100131.20;;;22.40
69590;BMP180;56792;50.644;17.984;2022-10-16T14:01:02;100132.80;;;22.20
69590;BMP180;56792;50.644;17.984;2022-10-16T14:03:37;100130.20;;;21.80
69590;BMP180;56792;50.644;17.984;2022-10-16T14:06:18;100140.20;;;21.56
69590;BMP180;56792;50.644;17.984;2022-10-16T14:09:06;100146.60;;;21.42
69590;BMP180;56792;50.644;17.984;2022-10-16T14:11:48;100149.00;;;21.20
69590;BMP180;56792;50.644;17.984;2022-10-16T14:14:22;100145.80;;;21.08
69590;BMP180;56792;50.644;17.984;2022-10-16T14:16:55;100145.20;;;20.90
69590;BMP180;56792;50.644;17.984;2022-10-16T14:19:31;100149.00;;;20.70
69590;BMP180;56792;50.644;17.984;2022-10-16T14:22:26;100149.40;;;20.50
69590;BMP180;56792;50.644;17.984;2022-10-16T14:25:00;100154.80;;;20.34
69590;BMP180;56792;50.644;17.984;2022-10-16T14:27:37;100151.20;;;20.16
69590;BMP180;56792;50.644;17.984;2022-10-16T14:30:28;100148.80;;;20.00
69590;BMP180;56792;50.644;17.984;2022-10-16T14:33:03;100149.60;;;19.90
69590;BMP180;56792;50.644;17.984;2022-10-16T14:35:39;100153.40;;;19.80
69590;BMP180;56792;50.644;17.984;2022-10-16T14:38:22;100154.80;;;19.70
69590;BMP180;56792;50.644;17.984;2022-10-16T14:40:54;100160.20;;;19.80
69590;BMP180;56792;50.644;17.984;2022-10-16T14:43:34;100164.20;;;19.90
69590;BMP180;56792;50.644;17.984;2022-10-16T14:46:13;100160.40;;;19.90
69590;BMP180;56792;50.644;17.984;2022-10-16T14:48:49;100157.40;;;20.00
69590;BMP180;56792;50.644;17.984;2022-10-16T14:51:24;100160.20;;;19.94